createdAt,value
2023-04-06T00:00:15.328Z,-11024.31
2023-04-06T00:03:21.580Z,-11022.75
2023-04-06T00:06:28.017Z,-11029.91
2023-04-06T00:09:34.137Z,-11025.72
2023-04-06T00:12:41.960Z,-11028.78
2023-04-06T00:15:48.310Z,-11025.44
2023-04-06T00:18:54.660Z,-11027.94
2023-04-06T00:22:01.066Z,-11027.94
2023-04-06T00:25:07.959Z,-11023.75
2023-04-06T00:28:15.657Z,-11027.94
2023-04-06T00:31:21.996Z,-11025.44
2023-04-06T00:34:28.484Z,-11018.84
2023-04-06T00:37:35.037Z,-11024.72
2023-04-06T00:40:41.463Z,-11021.34
2023-04-06T00:43:49.305Z,-11026.28
2023-04-06T00:46:55.866Z,-11036.38
2023-04-06T00:50:02.380Z,-11028.66
2023-04-06T00:53:08.422Z,-11028.50
2023-04-06T00:56:14.351Z,-11018.97
2023-04-06T00:59:22.092Z,-11021.22
2023-04-06T01:02:28.434Z,-11021.22
2023-04-06T01:05:36.276Z,-11015.88
2023-04-06T01:08:42.728Z,-11021.06
2023-04-06T01:11:48.715Z,-11015.31
2023-04-06T01:14:56.229Z,-11020.09
2023-04-06T01:18:02.271Z,-11021.78
2023-04-06T01:21:09.766Z,-11014.75
2023-04-06T01:24:17.512Z,-11017.44
2023-04-06T01:27:23.525Z,-11013.09
2023-04-06T01:30:29.580Z,-11006.06
2023-04-06T01:33:36.440Z,-11015.59
2023-04-06T01:36:42.707Z,-11003.25
2023-04-06T01:39:50.274Z,-11017.00
2023-04-06T01:42:56.427Z,-11017.84
2023-04-06T01:46:03.024Z,-10999.34
2023-04-06T01:49:09.776Z,-11002.44
2023-04-06T01:52:16.892Z,-11004.53
2023-04-06T01:55:24.635Z,-11005.78
2023-04-06T01:58:30.688Z,-11011.13
2023-04-06T02:01:37.009Z,-11009.72
2023-04-06T02:04:43.281Z,-11012.25
2023-04-06T02:07:50.197Z,-11000.19
2023-04-06T02:10:58.235Z,-10996.25
2023-04-06T02:14:04.231Z,-11004.09
2023-04-06T02:17:10.464Z,-11009.72
2023-04-06T02:20:16.878Z,-11006.91
2023-04-06T02:23:22.973Z,-11007.19
2023-04-06T02:26:30.962Z,-11016.72
2023-04-06T02:29:37.524Z,-11009.84
2023-04-06T02:32:43.621Z,-11015.88
2023-04-06T02:35:49.723Z,-11003.53
2023-04-06T02:38:55.692Z,-11009.44
2023-04-06T02:42:04.612Z,-11006.34
2023-04-06T02:45:11.129Z,-11007.47
2023-04-06T02:48:17.519Z,-11007.06
2023-04-06T02:51:23.909Z,-11009.28
2023-04-06T02:54:30.105Z,-10999.06
2023-04-06T02:57:37.377Z,-10991.78
2023-04-06T03:00:43.673Z,-10985.47
2023-04-06T03:03:49.776Z,-10994.28
2023-04-06T03:06:58.718Z,-10989.38
2023-04-06T03:10:06.777Z,-10987.69
2023-04-06T03:13:14.613Z,-10990.66
2023-04-06T03:16:20.823Z,-10979.44
2023-04-06T03:19:26.815Z,-10983.06
2023-04-06T03:22:33.258Z,-10978.75
2023-04-06T03:25:40.702Z,-10982.50
2023-04-06T03:28:48.621Z,-10984.63
2023-04-06T03:31:54.827Z,-10985.59
2023-04-06T03:35:01.363Z,-10982.50
2023-04-06T03:38:07.524Z,-10977.75
2023-04-06T03:41:14.042Z,-10978.19
2023-04-06T03:44:22.064Z,-10980.13
2023-04-06T03:47:28.283Z,-10978.59
2023-04-06T03:50:34.420Z,-10978.59
2023-04-06T03:53:40.550Z,-10978.47
2023-04-06T03:56:46.776Z,-10981.53
2023-04-06T03:59:54.109Z,-10983.34
2023-04-06T04:03:00.197Z,-10982.25
2023-04-06T04:06:06.903Z,-10975.94
2023-04-06T04:09:13.162Z,-10980.56
2023-04-06T04:12:19.472Z,-10976.06
2023-04-06T04:15:26.975Z,-10984.75
2023-04-06T04:18:33.227Z,-10981.41
2023-04-06T04:21:46.203Z,-10980.00
2023-04-06T04:24:52.486Z,-10977.91
2023-04-06T04:27:58.969Z,-10983.63
2023-04-06T04:31:06.819Z,-10980.41
2023-04-06T04:34:13.272Z,-10985.88
2023-04-06T04:37:19.315Z,-10982.25
2023-04-06T04:40:25.621Z,-10987.00
2023-04-06T04:43:32.879Z,-10987.00
2023-04-06T04:46:42.573Z,-10986.72
2023-04-06T04:49:48.528Z,-10993.19
2023-04-06T04:52:54.822Z,-10979.16
2023-04-06T04:56:01.168Z,-10994.72
2023-04-06T04:59:07.737Z,-10995.56
2023-04-06T05:02:15.956Z,-11005.22
2023-04-06T05:05:22.523Z,-11006.91
2023-04-06T05:08:28.747Z,-11020.38
2023-04-06T05:11:35.304Z,-11024.31
2023-04-06T05:14:42.581Z,-11029.50
2023-04-06T05:17:50.461Z,-11044.22
2023-04-06T05:20:57.557Z,-11033.84
2023-04-06T05:24:04.558Z,-11030.91
2023-04-06T05:27:11.019Z,-11041.00
2023-04-06T05:30:17.577Z,-11046.88
2023-04-06T05:33:26.212Z,-11040.28
2023-04-06T05:36:33.317Z,-11046.59
2023-04-06T05:39:39.879Z,-11044.09
2023-04-06T05:42:46.176Z,-11060.50
2023-04-06T05:45:52.375Z,-11053.19
2023-04-06T05:49:00.116Z,-11051.66
2023-04-06T05:52:06.909Z,-11063.59
2023-04-06T05:55:13.824Z,-11059.53
2023-04-06T05:58:20.250Z,-11058.25
2023-04-06T06:01:26.412Z,-11069.06
2023-04-06T06:04:34.353Z,-11047.88
2023-04-06T06:07:40.641Z,-11064.44
2023-04-06T06:10:46.849Z,-11052.91
2023-04-06T06:13:53.310Z,-11066.81
2023-04-06T06:16:59.780Z,-11081.69
2023-04-06T06:20:08.837Z,-11061.34
2023-04-06T06:23:15.249Z,-11067.78
2023-04-06T06:26:21.433Z,-11068.34
2023-04-06T06:29:27.919Z,-11077.34
2023-04-06T06:32:34.683Z,-11065.28
2023-04-06T06:35:42.626Z,-11052.63
2023-04-06T06:38:49.252Z,-11049.00
2023-04-06T06:41:56.424Z,-11039.59
2023-04-06T06:45:03.074Z,-11046.59
2023-04-06T06:48:09.713Z,-11044.50
2023-04-06T06:51:17.216Z,-11043.66
2023-04-06T06:54:23.285Z,-11067.94
2023-04-06T06:57:30.790Z,-11073.41
2023-04-06T07:00:37.026Z,-11092.09
2023-04-06T07:03:43.511Z,-11062.75
2023-04-06T07:06:51.677Z,-11050.69
2023-04-06T07:09:57.816Z,-11059.25
2023-04-06T07:13:04.282Z,-11055.03
2023-04-06T07:16:11.041Z,-11075.09
2023-04-06T07:19:16.944Z,-11060.78
2023-04-06T07:22:24.530Z,-11077.91
2023-04-06T07:25:31.425Z,-11097.28
2023-04-06T07:28:37.489Z,-11087.72
2023-04-06T07:31:43.691Z,-11097.97
2023-04-06T07:34:49.886Z,-11097.69
2023-04-06T07:37:57.607Z,-11095.59
2023-04-06T07:41:05.113Z,-11099.81
2023-04-06T07:44:11.673Z,-11115.81
2023-04-06T07:47:18.399Z,-11122.13
2023-04-06T07:50:25.009Z,-11115.81
2023-04-06T07:53:33.126Z,-11140.81
2023-04-06T07:56:39.298Z,-11141.66
2023-04-06T07:59:46.086Z,-11121.84
2023-04-06T08:02:56.101Z,-11122.84
2023-04-06T08:06:03.501Z,-11136.88
2023-04-06T08:09:11.228Z,-11127.06
2023-04-06T08:12:17.552Z,-11129.31
2023-04-06T08:15:23.936Z,-11165.28
2023-04-06T08:18:31.137Z,-11157.81
2023-04-06T08:21:37.487Z,-11169.50
2023-04-06T08:24:45.375Z,-11163.44
2023-04-06T08:27:52.037Z,-11162.59
2023-04-06T08:30:58.683Z,-11149.53
2023-04-06T08:34:06.930Z,-11181.28
2023-04-06T08:37:13.491Z,-11190.56
2023-04-06T08:40:21.771Z,-11174.69
2023-04-06T08:43:29.747Z,-11170.34
2023-04-06T08:46:36.392Z,-11184.94
2023-04-06T08:49:44.282Z,-11160.78
2023-04-06T08:52:51.249Z,-11174.13
2023-04-06T08:56:01.705Z,-11165.84
2023-04-06T08:59:09.713Z,-11159.94
2023-04-06T09:02:20.062Z,-11154.72
2023-04-06T09:05:27.568Z,-11187.63
2023-04-06T09:08:34.736Z,-11194.78
2023-04-06T09:11:51.595Z,-11172.31
2023-04-06T09:14:58.969Z,-11154.03
2023-04-06T09:18:05.896Z,-11144.34
2023-04-06T09:21:13.050Z,-11163.59
2023-04-06T09:24:26.182Z,-11181.56
2023-04-06T09:27:35.135Z,-11166.13
2023-04-06T09:30:50.636Z,-11174.69
2023-04-06T09:33:57.947Z,-11149.38
2023-04-06T09:37:15.094Z,-11171.88
2023-04-06T09:40:23.353Z,-11170.47
2023-04-06T09:43:31.868Z,-11177.06
2023-04-06T09:46:54.986Z,-11182.69
2023-04-06T09:50:06.111Z,-11189.44
2023-04-06T09:53:13.074Z,-11202.94
2023-04-06T09:56:26.187Z,-11200.84
2023-04-06T09:59:44.689Z,-11203.38
2023-04-06T10:02:57.754Z,-11207.44
2023-04-06T10:06:07.809Z,-11216.16
2023-04-06T10:09:15.479Z,-11222.06
2023-04-06T10:12:22.771Z,-11222.34
2023-04-06T10:15:31.345Z,-11215.59
2023-04-06T10:18:37.809Z,-11233.19
2023-04-06T10:21:47.805Z,-11201.25
2023-04-06T10:24:54.324Z,-11182.13
2023-04-06T10:28:07.175Z,-11200.84
2023-04-06T10:31:15.178Z,-11217.56
2023-04-06T10:34:21.665Z,-11241.75
2023-04-06T10:37:27.742Z,-11225.72
2023-04-06T10:40:34.114Z,-11232.63
2023-04-06T10:43:41.939Z,-11226.28
2023-04-06T10:46:57.728Z,-11257.81
2023-04-06T10:50:04.492Z,-11227.41
2023-04-06T10:53:10.857Z,-11247.97
2023-04-06T10:56:18.411Z,-11250.50
2023-04-06T10:59:26.515Z,-11238.09
2023-04-06T11:02:34.563Z,-11229.94
2023-04-06T11:05:41.446Z,-11257.38
2023-04-06T11:08:47.869Z,-11252.75
2023-04-06T11:11:54.233Z,-11246.56
2023-04-06T11:15:05.339Z,-11260.63
2023-04-06T11:18:13.137Z,-11222.34
2023-04-06T11:21:20.022Z,-11230.09
2023-04-06T11:24:26.731Z,-11255.84
2023-04-06T11:27:33.575Z,-11231.78
2023-04-06T11:30:40.015Z,-11246.00
2023-04-06T11:33:48.114Z,-11255.84
2023-04-06T11:36:58.230Z,-11245.16
2023-04-06T11:40:05.022Z,-11244.88
2023-04-06T11:43:13.858Z,-11226.28
2023-04-06T11:46:21.549Z,-11246.28
2023-04-06T11:49:31.266Z,-11247.97
2023-04-06T11:52:37.725Z,-11236.44
2023-04-06T11:55:46.265Z,-11259.78
2023-04-06T11:58:52.815Z,-11248.94
2023-04-06T12:01:59.528Z,-11232.47
2023-04-06T12:05:09.648Z,-11230.38
2023-04-06T12:08:15.989Z,-11244.88
2023-04-06T12:11:22.986Z,-11235.31
2023-04-06T12:14:29.373Z,-11264.16
2023-04-06T12:17:35.911Z,-11241.34
2023-04-06T12:20:43.647Z,-11239.22
2023-04-06T12:23:50.040Z,-11242.88
2023-04-06T12:27:06.937Z,-11238.66
2023-04-06T12:30:16.271Z,-11233.03
2023-04-06T12:33:23.059Z,-11247.69
2023-04-06T12:36:30.687Z,-11256.13
2023-04-06T12:39:37.012Z,-11255.13
2023-04-06T12:42:43.283Z,-11260.06
2023-04-06T12:45:49.597Z,-11278.78
2023-04-06T12:48:56.288Z,-11226.84
2023-04-06T12:52:04.681Z,-11237.56
2023-04-06T12:55:11.804Z,-11218.69
2023-04-06T12:58:18.219Z,-11212.22
2023-04-06T13:01:24.591Z,-11236.44
2023-04-06T13:04:31.033Z,-11242.59
2023-04-06T13:07:38.836Z,-11241.75
2023-04-06T13:10:46.161Z,-11241.75
2023-04-06T13:13:52.553Z,-11220.66
2023-04-06T13:16:58.651Z,-11228.81
2023-04-06T13:20:06.109Z,-11230.38
2023-04-06T13:23:14.125Z,-11210.81
2023-04-06T13:26:20.325Z,-11241.19
2023-04-06T13:29:27.137Z,-11241.75
2023-04-06T13:32:34.929Z,-11225.03
2023-04-06T13:35:41.378Z,-11257.25
2023-04-06T13:38:49.455Z,-11210.53
2023-04-06T13:41:56.520Z,-11204.50
2023-04-06T13:45:03.228Z,-11205.75
2023-04-06T13:48:09.520Z,-11185.78
2023-04-06T13:51:16.918Z,-11180.72
2023-04-06T13:54:24.470Z,-11191.97
2023-04-06T13:57:30.954Z,-11215.47
2023-04-06T14:00:37.969Z,-11204.22
2023-04-06T14:03:46.651Z,-11218.28
2023-04-06T14:06:53.854Z,-11221.66
2023-04-06T14:10:01.558Z,-11202.81
2023-04-06T14:13:07.806Z,-11226.28
2023-04-06T14:16:13.983Z,-11248.53
2023-04-06T14:19:20.513Z,-11218.13
2023-04-06T14:22:26.604Z,-11243.47
2023-04-06T14:25:35.949Z,-11240.06
2023-04-06T14:28:42.375Z,-11284.56
2023-04-06T14:31:50.439Z,-11238.09
2023-04-06T14:34:57.069Z,-11287.50
2023-04-06T14:38:03.506Z,-11251.75
2023-04-06T14:41:11.730Z,-11242.31
2023-04-06T14:44:18.349Z,-11262.44
2023-04-06T14:47:24.853Z,-11212.22
2023-04-06T14:50:31.396Z,-11227.69
2023-04-06T14:53:37.505Z,-11199.28
2023-04-06T14:56:45.475Z,-11218.69
2023-04-06T14:59:54.821Z,-11188.59
2023-04-06T15:03:01.150Z,-11181.84
2023-04-06T15:06:08.535Z,-11178.47
2023-04-06T15:09:14.938Z,-11167.81
2023-04-06T15:12:22.793Z,-11173.56
2023-04-06T15:15:29.168Z,-11186.91
2023-04-06T15:18:36.039Z,-11169.91
2023-04-06T15:21:42.262Z,-11164.72
2023-04-06T15:24:48.443Z,-11168.78
2023-04-06T15:27:56.238Z,-11153.75
2023-04-06T15:31:07.166Z,-11161.19
2023-04-06T15:34:13.506Z,-11146.28
2023-04-06T15:37:20.437Z,-11145.03
2023-04-06T15:40:27.418Z,-11167.25
2023-04-06T15:43:35.532Z,-11157.81
2023-04-06T15:46:41.686Z,-11156.84
2023-04-06T15:49:48.233Z,-11150.66
2023-04-06T15:52:54.437Z,-11144.06
2023-04-06T15:56:01.799Z,-11137.16
2023-04-06T15:59:09.952Z,-11139.97
2023-04-06T16:02:16.721Z,-11123.69
2023-04-06T16:05:23.439Z,-11132.38
2023-04-06T16:08:29.648Z,-11126.22
2023-04-06T16:11:37.153Z,-11116.81
2023-04-06T16:14:44.963Z,-11123.13
2023-04-06T16:17:51.820Z,-11111.59
2023-04-06T16:20:58.273Z,-11110.75
2023-04-06T16:24:05.471Z,-11108.94
2023-04-06T16:27:12.348Z,-11095.88
2023-04-06T16:30:20.715Z,-11096.84
2023-04-06T16:33:26.896Z,-11087.44
2023-04-06T16:36:33.994Z,-11088.84
2023-04-06T16:39:40.383Z,-11088.84
2023-04-06T16:42:48.473Z,-11082.69
2023-04-06T16:45:56.051Z,-11085.06
2023-04-06T16:49:03.331Z,-11076.50
2023-04-06T16:52:09.521Z,-11079.59
2023-04-06T16:55:15.695Z,-11080.16
2023-04-06T16:58:22.035Z,-11081.97
2023-04-06T17:01:30.678Z,-11074.81
2023-04-06T17:04:37.783Z,-11068.06
2023-04-06T17:07:44.405Z,-11066.53
2023-04-06T17:10:59.280Z,-11066.66
2023-04-06T17:14:11.029Z,-11063.88
2023-04-06T17:17:19.011Z,-11063.31
2023-04-06T17:20:25.733Z,-11056.28
2023-04-06T17:23:32.401Z,-11064.72
2023-04-06T17:26:38.930Z,-11065.84
2023-04-06T17:29:45.369Z,-11060.78
2023-04-06T17:32:53.523Z,-11057.84
2023-04-06T17:36:00.135Z,-11060.63
2023-04-06T17:39:06.732Z,-11056.84
2023-04-06T17:42:13.662Z,-11055.72
2023-04-06T17:45:19.961Z,-11062.19
2023-04-06T17:48:29.445Z,-11054.31
2023-04-06T17:51:35.752Z,-11054.03
2023-04-06T17:54:41.950Z,-11055.16
2023-04-06T17:57:48.090Z,-11054.88
2023-04-06T18:00:54.504Z,-11056.00
2023-04-06T18:04:02.086Z,-11059.09
2023-04-06T18:07:08.716Z,-11057.41
2023-04-06T18:10:15.076Z,-11057.56
2023-04-06T18:13:21.461Z,-11055.31
2023-04-06T18:16:28.611Z,-11061.34
2023-04-06T18:19:36.467Z,-11060.78
2023-04-06T18:22:43.329Z,-11055.31
2023-04-06T18:25:49.791Z,-11056.16
2023-04-06T18:28:56.266Z,-11053.34
2023-04-06T18:32:02.587Z,-11052.63
2023-04-06T18:35:11.466Z,-11053.34
2023-04-06T18:38:17.741Z,-11052.78
2023-04-06T18:41:24.735Z,-11054.31
2023-04-06T18:44:31.661Z,-11054.31
2023-04-06T18:47:38.198Z,-11056.56
2023-04-06T18:50:54.980Z,-11050.97
2023-04-06T18:54:02.462Z,-11047.88
2023-04-06T18:57:08.437Z,-11046.75
2023-04-06T19:00:15.884Z,-11051.25
2023-04-06T19:03:22.497Z,-11055.44
2023-04-06T19:06:31.328Z,-11050.69
2023-04-06T19:09:37.609Z,-11051.09
2023-04-06T19:12:44.212Z,-11050.97
2023-04-06T19:15:50.827Z,-11039.88
2023-04-06T19:18:57.626Z,-11043.38
2023-04-06T19:22:05.656Z,-11047.88
2023-04-06T19:25:12.716Z,-11039.16
2023-04-06T19:28:19.077Z,-11041.69
2023-04-06T19:31:27.209Z,-11040.84
2023-04-06T19:34:33.674Z,-11042.81
2023-04-06T19:37:41.436Z,-11039.16
2023-04-06T19:40:47.769Z,-11036.38
2023-04-06T19:43:54.440Z,-11041.69
2023-04-06T19:47:00.725Z,-11034.41
2023-04-06T19:50:10.486Z,-11038.06
2023-04-06T19:53:18.431Z,-11030.34
2023-04-06T19:56:24.971Z,-11031.31
2023-04-06T19:59:31.399Z,-11030.47
2023-04-06T20:02:37.657Z,-11030.19
2023-04-06T20:05:44.071Z,-11031.59
2023-04-06T20:08:51.844Z,-11024.59
2023-04-06T20:11:58.368Z,-11025.72
2023-04-06T20:15:05.038Z,-11030.47
2023-04-06T20:18:11.592Z,-11024.44
2023-04-06T20:21:18.077Z,-11025.72
2023-04-06T20:24:25.673Z,-11023.19
2023-04-06T20:27:32.184Z,-11024.16
2023-04-06T20:30:38.323Z,-11024.44
2023-04-06T20:33:44.383Z,-11023.59
2023-04-06T20:36:50.664Z,-11024.59
2023-04-06T20:39:59.280Z,-11018.13
2023-04-06T20:43:06.056Z,-11018.13
2023-04-06T20:46:17.185Z,-11022.91
2023-04-06T20:49:24.216Z,-11018.41
2023-04-06T20:52:30.614Z,-11022.75
2023-04-06T20:55:41.578Z,-11021.78
2023-04-06T20:58:47.791Z,-11020.22
2023-04-06T21:01:54.065Z,-11018.13
2023-04-06T21:05:00.225Z,-11022.47
2023-04-06T21:08:06.776Z,-11017.56
2023-04-06T21:11:14.375Z,-11021.22
2023-04-06T21:14:21.228Z,-11019.81
2023-04-06T21:17:27.671Z,-11015.03
2023-04-06T21:20:35.133Z,-11014.75
2023-04-06T21:23:41.610Z,-11013.09
2023-04-06T21:26:49.447Z,-11007.19
2023-04-06T21:29:56.230Z,-11008.03
2023-04-06T21:33:02.749Z,-11006.50
2023-04-06T21:36:09.954Z,-11002.97
2023-04-06T21:39:16.552Z,-11001.59
2023-04-06T21:42:24.395Z,-11003.25
2023-04-06T21:45:31.270Z,-11002.97
2023-04-06T21:48:38.315Z,-10995.69
2023-04-06T21:51:44.843Z,-10994.56
2023-04-06T21:54:51.482Z,-11002.56
2023-04-06T21:57:59.359Z,-10995.97
2023-04-06T22:01:11.370Z,-10996.53
2023-04-06T22:04:17.958Z,-10995.97
2023-04-06T22:07:24.554Z,-10993.59
2023-04-06T22:10:31.568Z,-10995.13
2023-04-06T22:13:40.375Z,-10994.00
2023-04-06T22:16:46.787Z,-10994.28
2023-04-06T22:19:53.054Z,-10996.81
2023-04-06T22:22:59.221Z,-10991.50
2023-04-06T22:26:05.366Z,-10996.69
2023-04-06T22:29:13.180Z,-10990.94
2023-04-06T22:32:19.908Z,-10991.50
2023-04-06T22:35:26.826Z,-10991.78
2023-04-06T22:38:33.276Z,-10995.69
2023-04-06T22:41:39.630Z,-10996.81
2023-04-06T22:44:47.216Z,-10991.91
2023-04-06T22:47:53.820Z,-10989.09
2023-04-06T22:51:00.468Z,-10991.34
2023-04-06T22:54:06.708Z,-10984.91
2023-04-06T22:57:13.047Z,-10986.44
2023-04-06T23:00:20.911Z,-10989.81
2023-04-06T23:03:27.365Z,-10990.50
2023-04-06T23:06:34.037Z,-10998.09
2023-04-06T23:09:41.236Z,-10997.09
2023-04-06T23:12:48.389Z,-10993.44
2023-04-06T23:15:56.524Z,-10991.50
2023-04-06T23:19:02.756Z,-10991.50
2023-04-06T23:22:09.254Z,-10996.25
2023-04-06T23:25:15.787Z,-10993.88
2023-04-06T23:28:22.438Z,-10989.09
2023-04-06T23:31:30.151Z,-10990.66
2023-04-06T23:34:36.719Z,-10987.00
2023-04-06T23:37:43.219Z,-10989.94
2023-04-06T23:40:49.561Z,-10994.28
2023-04-06T23:43:56.887Z,-10991.34
2023-04-06T23:47:04.454Z,-10988.25
2023-04-06T23:50:11.227Z,-10994.00
2023-04-06T23:53:17.398Z,-10987.28
2023-04-06T23:56:23.725Z,-10987.00
2023-04-06T23:59:29.850Z,-10990.94
